sensor_id;sensor_type;location;lat;lon;timestamp;temperature;humidity
5007;DHT22;2522;50.972;11.046;2022-09-09T03:32:11;17.00;99.90
5007;DHT22;2522;50.972;11.046;2022-09-09T03:34:38;17.00;99.90
5007;DHT22;2522;50.972;11.046;2022-09-09T03:37:05;17.00;99.90
5007;DHT22;2522;50.972;11.046;2022-09-09T03:39:32;16.90;99.90
5007;DHT22;2522;50.972;11.046;2022-09-09T03:41:58;16.90;99.90
5007;DHT22;2522;50.972;11.046;2022-09-09T03:44:29;16.90;99.90
5007;DHT22;2522;50.972;11.046;2022-09-09T03:46:56;17.00;99.90
5007;DHT22;2522;50.972;11.046;2022-09-09T03:49:24;16.90;99.90
5007;DHT22;2522;50.972;11.046;2022-09-09T03:51:51;16.90;99.90
5007;DHT22;2522;50.972;11.046;2022-09-09T03:54:18;16.90;99.90
5007;DHT22;2522;50.972;11.046;2022-09-09T03:56:45;16.90;99.90
5007;DHT22;2522;50.972;11.046;2022-09-09T03:59:11;16.90;99.90
5007;DHT22;2522;50.972;11.046;2022-09-09T04:01:39;16.90;99.90
5007;DHT22;2522;50.972;11.046;2022-09-09T04:04:06;16.90;99.90
5007;DHT22;2522;50.972;11.046;2022-09-09T04:06:34;17.00;99.90
5007;DHT22;2522;50.972;11.046;2022-09-09T04:09:01;16.90;99.90
5007;DHT22;2522;50.972;11.046;2022-09-09T04:11:28;16.90;99.90
5007;DHT22;2522;50.972;11.046;2022-09-09T04:13:55;16.90;99.90
5007;DHT22;2522;50.972;11.046;2022-09-09T04:16:21;16.90;99.90
5007;DHT22;2522;50.972;11.046;2022-09-09T04:18:48;17.00;99.90
5007;DHT22;2522;50.972;11.046;2022-09-09T04:21:15;16.80;99.90
5007;DHT22;2522;50.972;11.046;2022-09-09T04:23:43;16.80;99.90
5007;DHT22;2522;50.972;11.046;2022-09-09T04:26:10;16.80;99.90
5007;DHT22;2522;50.972;11.046;2022-09-09T04:28:37;16.80;99.90
5007;DHT22;2522;50.972;11.046;2022-09-09T04:31:04;16.80;99.90
5007;DHT22;2522;50.972;11.046;2022-09-09T04:33:31;16.80;99.90
5007;DHT22;2522;50.972;11.046;2022-09-09T04:35:58;16.90;99.90
5007;DHT22;2522;50.972;11.046;2022-09-09T04:38:24;16.70;99.90
5007;DHT22;2522;50.972;11.046;2022-09-09T04:40:52;16.70;99.90
5007;DHT22;2522;50.972;11.046;2022-09-09T04:43:19;16.70;99.90
5007;DHT22;2522;50.972;11.046;2022-09-09T04:45:48;16.60;99.90
5007;DHT22;2522;50.972;11.046;2022-09-09T04:48:15;16.60;99.90
5007;DHT22;2522;50.972;11.046;2022-09-09T04:50:41;16.60;99.90
5007;DHT22;2522;50.972;11.046;2022-09-09T04:53:08;16.70;99.90
5007;DHT22;2522;50.972;11.046;2022-09-09T04:55:35;16.60;99.90
5007;DHT22;2522;50.972;11.046;2022-09-09T04:58:06;16.60;99.90
5007;DHT22;2522;50.972;11.046;2022-09-09T05:00:33;16.50;99.90
5007;DHT22;2522;50.972;11.046;2022-09-09T05:03:02;16.50;99.90
5007;DHT22;2522;50.972;11.046;2022-09-09T05:05:29;16.50;99.90
5007;DHT22;2522;50.972;11.046;2022-09-09T05:08:00;16.50;99.90
5007;DHT22;2522;50.972;11.046;2022-09-09T05:10:30;16.50;99.90
5007;DHT22;2522;50.972;11.046;2022-09-09T05:12:56;16.50;99.90
5007;DHT22;2522;50.972;11.046;2022-09-09T05:15:24;16.50;99.90
5007;DHT22;2522;50.972;11.046;2022-09-09T05:17:51;16.50;99.90
5007;DHT22;2522;50.972;11.046;2022-09-09T05:20:18;16.50;99.90
5007;DHT22;2522;50.972;11.046;2022-09-09T05:22:45;16.60;99.90
5007;DHT22;2522;50.972;11.046;2022-09-09T05:25:12;16.60;99.90
5007;DHT22;2522;50.972;11.046;2022-09-09T05:27:39;16.50;99.90
5007;DHT22;2522;50.972;11.046;2022-09-09T05:30:06;16.60;99.90
5007;DHT22;2522;50.972;11.046;2022-09-09T05:32:34;16.60;99.90
5007;DHT22;2522;50.972;11.046;2022-09-09T05:35:02;16.60;99.90
5007;DHT22;2522;50.972;11.046;2022-09-09T05:37:28;16.60;99.90
5007;DHT22;2522;50.972;11.046;2022-09-09T05:39:57;16.60;99.90
5007;DHT22;2522;50.972;11.046;2022-09-09T05:42:24;16.60;99.90
5007;DHT22;2522;50.972;11.046;2022-09-09T05:44:51;16.70;99.90
5007;DHT22;2522;50.972;11.046;2022-09-09T05:47:19;16.70;99.90
5007;DHT22;2522;50.972;11.046;2022-09-09T05:49:47;16.70;99.90
5007;DHT22;2522;50.972;11.046;2022-09-09T05:52:14;16.80;99.90
5007;DHT22;2522;50.972;11.046;2022-09-09T05:54:41;16.80;99.90
5007;DHT22;2522;50.972;11.046;2022-09-09T05:57:08;16.80;99.90
5007;DHT22;2522;50.972;11.046;2022-09-09T05:59:35;16.90;99.90
5007;DHT22;2522;50.972;11.046;2022-09-09T06:02:01;16.90;99.90
5007;DHT22;2522;50.972;11.046;2022-09-09T06:04:28;16.90;99.90
5007;DHT22;2522;50.972;11.046;2022-09-09T06:06:57;17.00;99.90
5007;DHT22;2522;50.972;11.046;2022-09-09T06:09:24;17.00;99.90
5007;DHT22;2522;50.972;11.046;2022-09-09T06:11:50;17.10;99.90
5007;DHT22;2522;50.972;11.046;2022-09-09T06:14:17;17.10;99.90
5007;DHT22;2522;50.972;11.046;2022-09-09T06:16:44;17.20;99.90
5007;DHT22;2522;50.972;11.046;2022-09-09T06:19:11;17.30;99.90
5007;DHT22;2522;50.972;11.046;2022-09-09T06:21:39;17.30;99.90
5007;DHT22;2522;50.972;11.046;2022-09-09T06:24:08;17.40;99.90
5007;DHT22;2522;50.972;11.046;2022-09-09T06:26:36;17.50;99.90
5007;DHT22;2522;50.972;11.046;2022-09-09T06:29:03;17.60;99.90
5007;DHT22;2522;50.972;11.046;2022-09-09T06:31:30;17.80;99.90
5007;DHT22;2522;50.972;11.046;2022-09-09T06:33:59;18.00;99.90
5007;DHT22;2522;50.972;11.046;2022-09-09T06:36:26;18.10;99.90
5007;DHT22;2522;50.972;11.046;2022-09-09T06:38:53;18.10;99.90
5007;DHT22;2522;50.972;11.046;2022-09-09T06:41:22;18.20;99.90
5007;DHT22;2522;50.972;11.046;2022-09-09T06:43:49;18.30;99.90
5007;DHT22;2522;50.972;11.046;2022-09-09T06:46:16;18.40;99.90
5007;DHT22;2522;50.972;11.046;2022-09-09T06:48:43;18.50;99.90
5007;DHT22;2522;50.972;11.046;2022-09-09T06:51:11;18.50;99.90
5007;DHT22;2522;50.972;11.046;2022-09-09T06:53:39;18.60;99.90
5007;DHT22;2522;50.972;11.046;2022-09-09T06:56:17;18.70;99.90
5007;DHT22;2522;50.972;11.046;2022-09-09T06:58:45;18.70;99.90
5007;DHT22;2522;50.972;11.046;2022-09-09T07:01:12;18.70;99.90
5007;DHT22;2522;50.972;11.046;2022-09-09T07:03:39;18.70;99.90
5007;DHT22;2522;50.972;11.046;2022-09-09T07:06:07;18.80;99.90
5007;DHT22;2522;50.972;11.046;2022-09-09T07:08:33;18.80;99.90
5007;DHT22;2522;50.972;11.046;2022-09-09T07:11:03;18.80;99.90
5007;DHT22;2522;50.972;11.046;2022-09-09T07:13:31;18.90;99.90
5007;DHT22;2522;50.972;11.046;2022-09-09T07:16:04;18.90;99.90
5007;DHT22;2522;50.972;11.046;2022-09-09T07:18:31;19.00;99.90
5007;DHT22;2522;50.972;11.046;2022-09-09T07:20:58;19.20;99.90
5007;DHT22;2522;50.972;11.046;2022-09-09T07:23:25;19.30;99.90
5007;DHT22;2522;50.972;11.046;2022-09-09T07:25:52;19.40;99.90
5007;DHT22;2522;50.972;11.046;2022-09-09T07:28:19;19.60;99.90
5007;DHT22;2522;50.972;11.046;2022-09-09T07:30:52;19.70;99.90
5007;DHT22;2522;50.972;11.046;2022-09-09T07:33:20;19.80;99.90
5007;DHT22;2522;50.972;11.046;2022-09-09T07:35:47;19.90;99.90
5007;DHT22;2522;50.972;11.046;2022-09-09T07:38:13;20.00;99.90
5007;DHT22;2522;50.972;11.046;2022-09-09T07:40:40;20.10;99.90
5007;DHT22;2522;50.972;11.046;2022-09-09T07:43:07;20.20;99.90
5007;DHT22;2522;50.972;11.046;2022-09-09T07:45:34;20.30;99.90
5007;DHT22;2522;50.972;11.046;2022-09-09T07:48:01;20.30;99.90
5007;DHT22;2522;50.972;11.046;2022-09-09T07:50:29;20.40;99.90
5007;DHT22;2522;50.972;11.046;2022-09-09T07:52:56;20.50;99.90
5007;DHT22;2522;50.972;11.046;2022-09-09T07:55:22;20.50;99.90
5007;DHT22;2522;50.972;11.046;2022-09-09T07:57:52;20.60;99.90
5007;DHT22;2522;50.972;11.046;2022-09-09T08:00:18;20.60;99.90
5007;DHT22;2522;50.972;11.046;2022-09-09T08:02:47;20.60;99.90
5007;DHT22;2522;50.972;11.046;2022-09-09T08:05:14;20.60;99.90
5007;DHT22;2522;50.972;11.046;2022-09-09T08:07:43;20.60;99.90
5007;DHT22;2522;50.972;11.046;2022-09-09T08:10:10;20.70;99.90
5007;DHT22;2522;50.972;11.046;2022-09-09T08:12:36;20.70;99.90
5007;DHT22;2522;50.972;11.046;2022-09-09T08:15:03;20.70;99.90
5007;DHT22;2522;50.972;11.046;2022-09-09T08:17:31;20.70;99.90
5007;DHT22;2522;50.972;11.046;2022-09-09T08:19:58;20.80;99.90
5007;DHT22;2522;50.972;11.046;2022-09-09T08:22:30;20.70;99.90
5007;DHT22;2522;50.972;11.046;2022-09-09T08:24:58;20.80;99.90
5007;DHT22;2522;50.972;11.046;2022-09-09T08:27:25;20.90;99.90
5007;DHT22;2522;50.972;11.046;2022-09-09T08:29:52;20.90;99.90
5007;DHT22;2522;50.972;11.046;2022-09-09T08:32:18;20.80;99.90
5007;DHT22;2522;50.972;11.046;2022-09-09T08:34:45;20.80;99.90
5007;DHT22;2522;50.972;11.046;2022-09-09T08:37:15;20.80;99.90
5007;DHT22;2522;50.972;11.046;2022-09-09T08:39:43;20.90;99.90
5007;DHT22;2522;50.972;11.046;2022-09-09T08:42:15;21.00;99.90
5007;DHT22;2522;50.972;11.046;2022-09-09T08:44:48;21.10;99.90
5007;DHT22;2522;50.972;11.046;2022-09-09T08:47:18;21.20;99.90
5007;DHT22;2522;50.972;11.046;2022-09-09T08:49:51;21.30;99.90
5007;DHT22;2522;50.972;11.046;2022-09-09T08:52:22;21.50;99.90
5007;DHT22;2522;50.972;11.046;2022-09-09T08:54:49;21.70;99.90
5007;DHT22;2522;50.972;11.046;2022-09-09T08:57:20;21.80;99.90
5007;DHT22;2522;50.972;11.046;2022-09-09T08:59:47;21.90;99.90
5007;DHT22;2522;50.972;11.046;2022-09-09T09:02:17;22.00;99.90
5007;DHT22;2522;50.972;11.046;2022-09-09T09:04:52;22.10;99.90
5007;DHT22;2522;50.972;11.046;2022-09-09T09:07:28;22.20;99.90
5007;DHT22;2522;50.972;11.046;2022-09-09T09:10:00;22.10;99.90
5007;DHT22;2522;50.972;11.046;2022-09-09T09:12:32;22.20;99.90
5007;DHT22;2522;50.972;11.046;2022-09-09T09:15:01;22.30;99.90
5007;DHT22;2522;50.972;11.046;2022-09-09T09:17:28;22.50;99.90
5007;DHT22;2522;50.972;11.046;2022-09-09T09:19:58;22.50;99.90
5007;DHT22;2522;50.972;11.046;2022-09-09T09:22:26;22.50;99.90
5007;DHT22;2522;50.972;11.046;2022-09-09T09:24:59;22.50;99.90
5007;DHT22;2522;50.972;11.046;2022-09-09T09:27:31;22.60;99.90
5007;DHT22;2522;50.972;11.046;2022-09-09T09:29:59;22.70;99.90
5007;DHT22;2522;50.972;11.046;2022-09-09T09:32:28;22.70;99.90
5007;DHT22;2522;50.972;11.046;2022-09-09T09:34:56;22.70;99.90
5007;DHT22;2522;50.972;11.046;2022-09-09T09:37:26;22.60;99.90
5007;DHT22;2522;50.972;11.046;2022-09-09T09:39:53;22.60;99.90
5007;DHT22;2522;50.972;11.046;2022-09-09T09:42:20;22.70;99.90
5007;DHT22;2522;50.972;11.046;2022-09-09T09:44:48;22.60;99.90
5007;DHT22;2522;50.972;11.046;2022-09-09T09:47:16;22.60;99.90
5007;DHT22;2522;50.972;11.046;2022-09-09T09:49:51;22.60;99.90
5007;DHT22;2522;50.972;11.046;2022-09-09T09:52:18;22.60;99.90
5007;DHT22;2522;50.972;11.046;2022-09-09T09:54:47;22.50;99.90
5007;DHT22;2522;50.972;11.046;2022-09-09T09:57:14;22.40;99.90
5007;DHT22;2522;50.972;11.046;2022-09-09T09:59:42;22.30;99.90
5007;DHT22;2522;50.972;11.046;2022-09-09T10:02:15;22.30;99.90
5007;DHT22;2522;50.972;11.046;2022-09-09T10:04:42;22.30;99.90
5007;DHT22;2522;50.972;11.046;2022-09-09T10:07:10;22.20;99.90
5007;DHT22;2522;50.972;11.046;2022-09-09T10:09:37;22.30;99.90
5007;DHT22;2522;50.972;11.046;2022-09-09T10:12:06;22.50;99.90
5007;DHT22;2522;50.972;11.046;2022-09-09T10:14:37;22.70;99.90
5007;DHT22;2522;50.972;11.046;2022-09-09T10:17:20;22.90;99.90
5007;DHT22;2522;50.972;11.046;2022-09-09T10:19:51;23.10;99.90
5007;DHT22;2522;50.972;11.046;2022-09-09T10:22:25;23.10;99.90
5007;DHT22;2522;50.972;11.046;2022-09-09T10:25:09;23.10;99.90
5007;DHT22;2522;50.972;11.046;2022-09-09T10:27:42;23.10;99.90
5007;DHT22;2522;50.972;11.046;2022-09-09T10:30:14;23.10;99.90
5007;DHT22;2522;50.972;11.046;2022-09-09T10:32:48;23.20;99.90
5007;DHT22;2522;50.972;11.046;2022-09-09T10:35:26;23.30;99.90
5007;DHT22;2522;50.972;11.046;2022-09-09T10:40:41;23.40;99.90
5007;DHT22;2522;50.972;11.046;2022-09-09T10:43:13;23.40;99.90
5007;DHT22;2522;50.972;11.046;2022-09-09T10:45:46;23.40;99.90
5007;DHT22;2522;50.972;11.046;2022-09-09T10:48:21;23.40;99.90
5007;DHT22;2522;50.972;11.046;2022-09-09T10:50:53;23.50;99.90
5007;DHT22;2522;50.972;11.046;2022-09-09T10:53:24;23.60;99.90
5007;DHT22;2522;50.972;11.046;2022-09-09T10:55:56;23.70;99.90
5007;DHT22;2522;50.972;11.046;2022-09-09T10:58:26;23.70;99.90
5007;DHT22;2522;50.972;11.046;2022-09-09T11:00:56;23.80;99.90
5007;DHT22;2522;50.972;11.046;2022-09-09T11:03:26;23.90;99.90
5007;DHT22;2522;50.972;11.046;2022-09-09T11:05:55;24.00;99.90
5007;DHT22;2522;50.972;11.046;2022-09-09T11:08:24;24.10;99.90
5007;DHT22;2522;50.972;11.046;2022-09-09T11:10:53;24.10;99.90
5007;DHT22;2522;50.972;11.046;2022-09-09T11:13:24;24.10;99.90
5007;DHT22;2522;50.972;11.046;2022-09-09T11:15:54;24.10;99.90
5007;DHT22;2522;50.972;11.046;2022-09-09T11:18:26;23.90;99.90
5007;DHT22;2522;50.972;11.046;2022-09-09T11:20:57;23.80;99.90
5007;DHT22;2522;50.972;11.046;2022-09-09T11:23:27;23.60;99.90
5007;DHT22;2522;50.972;11.046;2022-09-09T11:25:58;23.40;99.90
5007;DHT22;2522;50.972;11.046;2022-09-09T11:28:32;23.30;99.90
5007;DHT22;2522;50.972;11.046;2022-09-09T11:31:17;23.10;99.90
5007;DHT22;2522;50.972;11.046;2022-09-09T11:36:41;22.80;99.90
5007;DHT22;2522;50.972;11.046;2022-09-09T11:39:14;22.70;99.90
5007;DHT22;2522;50.972;11.046;2022-09-09T11:41:44;22.70;99.90
5007;DHT22;2522;50.972;11.046;2022-09-09T11:44:11;22.50;99.90
5007;DHT22;2522;50.972;11.046;2022-09-09T11:46:39;22.40;99.90
5007;DHT22;2522;50.972;11.046;2022-09-09T11:49:21;22.30;99.90
5007;DHT22;2522;50.972;11.046;2022-09-09T11:51:50;22.20;99.90
5007;DHT22;2522;50.972;11.046;2022-09-09T11:54:26;22.10;99.90
5007;DHT22;2522;50.972;11.046;2022-09-09T11:56:54;22.10;99.90
5007;DHT22;2522;50.972;11.046;2022-09-09T11:59:22;22.10;99.90
5007;DHT22;2522;50.972;11.046;2022-09-09T12:01:50;22.00;99.90
5007;DHT22;2522;50.972;11.046;2022-09-09T12:04:32;21.80;99.90
5007;DHT22;2522;50.972;11.046;2022-09-09T12:07:01;21.70;99.90
5007;DHT22;2522;50.972;11.046;2022-09-09T12:09:31;21.50;99.90
5007;DHT22;2522;50.972;11.046;2022-09-09T12:14:43;21.50;99.90
5007;DHT22;2522;50.972;11.046;2022-09-09T12:17:16;21.50;99.90
5007;DHT22;2522;50.972;11.046;2022-09-09T12:19:44;21.80;99.90
5007;DHT22;2522;50.972;11.046;2022-09-09T12:22:17;22.00;99.90
5007;DHT22;2522;50.972;11.046;2022-09-09T12:24:52;22.20;99.90
5007;DHT22;2522;50.972;11.046;2022-09-09T12:27:23;22.40;99.90
5007;DHT22;2522;50.972;11.046;2022-09-09T12:29:53;22.60;99.90
5007;DHT22;2522;50.972;11.046;2022-09-09T12:32:22;22.70;99.90
5007;DHT22;2522;50.972;11.046;2022-09-09T12:34:49;22.80;99.90
5007;DHT22;2522;50.972;11.046;2022-09-09T12:37:21;22.90;99.90
5007;DHT22;2522;50.972;11.046;2022-09-09T12:39:52;22.90;99.90
5007;DHT22;2522;50.972;11.046;2022-09-09T12:42:21;22.80;99.90
5007;DHT22;2522;50.972;11.046;2022-09-09T12:44:54;22.70;99.90
5007;DHT22;2522;50.972;11.046;2022-09-09T12:47:22;22.50;99.90
5007;DHT22;2522;50.972;11.046;2022-09-09T12:49:50;22.40;99.90
5007;DHT22;2522;50.972;11.046;2022-09-09T12:52:20;22.30;99.90
5007;DHT22;2522;50.972;11.046;2022-09-09T12:54:51;22.20;99.90
5007;DHT22;2522;50.972;11.046;2022-09-09T12:57:19;22.10;99.90
5007;DHT22;2522;50.972;11.046;2022-09-09T12:59:46;22.00;99.90
5007;DHT22;2522;50.972;11.046;2022-09-09T13:02:17;22.00;99.90
5007;DHT22;2522;50.972;11.046;2022-09-09T13:04:44;22.00;99.90
5007;DHT22;2522;50.972;11.046;2022-09-09T13:07:12;22.20;99.90
5007;DHT22;2522;50.972;11.046;2022-09-09T13:09:39;22.40;99.90
5007;DHT22;2522;50.972;11.046;2022-09-09T13:12:07;22.60;99.90
5007;DHT22;2522;50.972;11.046;2022-09-09T13:14:38;22.70;99.90
5007;DHT22;2522;50.972;11.046;2022-09-09T13:17:05;22.70;99.90
5007;DHT22;2522;50.972;11.046;2022-09-09T13:19:33;22.60;99.90
5007;DHT22;2522;50.972;11.046;2022-09-09T13:22:10;22.40;99.90
5007;DHT22;2522;50.972;11.046;2022-09-09T13:24:37;22.30;99.90
5007;DHT22;2522;50.972;11.046;2022-09-09T13:27:25;22.40;99.90
5007;DHT22;2522;50.972;11.046;2022-09-09T13:29:52;22.40;99.90
5007;DHT22;2522;50.972;11.046;2022-09-09T13:32:21;22.40;99.90
5007;DHT22;2522;50.972;11.046;2022-09-09T13:34:50;22.40;99.90
5007;DHT22;2522;50.972;11.046;2022-09-09T13:37:19;22.40;99.90
5007;DHT22;2522;50.972;11.046;2022-09-09T13:39:50;22.50;99.90
5007;DHT22;2522;50.972;11.046;2022-09-09T13:42:21;22.60;99.90
5007;DHT22;2522;50.972;11.046;2022-09-09T13:44:48;22.60;99.90
5007;DHT22;2522;50.972;11.046;2022-09-09T13:47:18;22.50;99.90
5007;DHT22;2522;50.972;11.046;2022-09-09T13:49:45;22.60;99.70
5007;DHT22;2522;50.972;11.046;2022-09-09T13:52:13;22.60;99.30
5007;DHT22;2522;50.972;11.046;2022-09-09T13:54:40;22.60;99.10
5007;DHT22;2522;50.972;11.046;2022-09-09T13:57:14;22.70;98.30
5007;DHT22;2522;50.972;11.046;2022-09-09T13:59:41;22.70;98.40
5007;DHT22;2522;50.972;11.046;2022-09-09T14:02:08;22.60;97.70
5007;DHT22;2522;50.972;11.046;2022-09-09T14:04:36;22.60;97.90
5007;DHT22;2522;50.972;11.046;2022-09-09T14:07:02;22.60;98.20
5007;DHT22;2522;50.972;11.046;2022-09-09T14:09:29;22.60;98.00
5007;DHT22;2522;50.972;11.046;2022-09-09T14:11:56;22.50;97.70
5007;DHT22;2522;50.972;11.046;2022-09-09T14:14:22;22.50;97.80
5007;DHT22;2522;50.972;11.046;2022-09-09T14:16:50;22.50;97.60
5007;DHT22;2522;50.972;11.046;2022-09-09T14:19:17;22.50;97.60
5007;DHT22;2522;50.972;11.046;2022-09-09T14:21:45;22.40;97.40
5007;DHT22;2522;50.972;11.046;2022-09-09T14:24:11;22.40;97.80
5007;DHT22;2522;50.972;11.046;2022-09-09T14:26:39;22.50;97.90
5007;DHT22;2522;50.972;11.046;2022-09-09T14:29:06;22.50;97.60
5007;DHT22;2522;50.972;11.046;2022-09-09T14:31:32;22.50;97.50
5007;DHT22;2522;50.972;11.046;2022-09-09T14:33:59;22.50;97.60
5007;DHT22;2522;50.972;11.046;2022-09-09T14:36:26;22.40;97.60
5007;DHT22;2522;50.972;11.046;2022-09-09T14:38:54;22.40;97.80
5007;DHT22;2522;50.972;11.046;2022-09-09T14:41:20;22.40;97.60
5007;DHT22;2522;50.972;11.046;2022-09-09T14:43:48;22.40;97.90
5007;DHT22;2522;50.972;11.046;2022-09-09T14:46:16;22.40;98.20
5007;DHT22;2522;50.972;11.046;2022-09-09T14:48:43;22.40;98.10
5007;DHT22;2522;50.972;11.046;2022-09-09T14:51:11;22.40;98.30
5007;DHT22;2522;50.972;11.046;2022-09-09T14:53:38;22.30;98.00
5007;DHT22;2522;50.972;11.046;2022-09-09T14:56:07;22.30;98.10
5007;DHT22;2522;50.972;11.046;2022-09-09T14:58:34;22.20;97.70
5007;DHT22;2522;50.972;11.046;2022-09-09T15:01:02;22.10;98.20
5007;DHT22;2522;50.972;11.046;2022-09-09T15:03:28;22.10;98.50
5007;DHT22;2522;50.972;11.046;2022-09-09T15:05:55;22.10;98.70
5007;DHT22;2522;50.972;11.046;2022-09-09T15:08:23;22.10;98.90
5007;DHT22;2522;50.972;11.046;2022-09-09T15:10:50;22.10;98.80
5007;DHT22;2522;50.972;11.046;2022-09-09T15:13:18;22.10;98.90
5007;DHT22;2522;50.972;11.046;2022-09-09T15:15:44;22.00;99.00
5007;DHT22;2522;50.972;11.046;2022-09-09T15:18:11;22.00;99.20
5007;DHT22;2522;50.972;11.046;2022-09-09T15:20:38;22.00;99.40
5007;DHT22;2522;50.972;11.046;2022-09-09T15:23:04;22.00;99.60
5007;DHT22;2522;50.972;11.046;2022-09-09T15:25:34;22.00;99.80
5007;DHT22;2522;50.972;11.046;2022-09-09T15:28:00;22.00;99.90
5007;DHT22;2522;50.972;11.046;2022-09-09T15:30:28;21.90;99.90
5007;DHT22;2522;50.972;11.046;2022-09-09T15:32:55;21.90;99.90
5007;DHT22;2522;50.972;11.046;2022-09-09T15:35:22;21.90;99.90
5007;DHT22;2522;50.972;11.046;2022-09-09T15:37:48;21.90;99.90
5007;DHT22;2522;50.972;11.046;2022-09-09T15:40:15;21.90;99.90
5007;DHT22;2522;50.972;11.046;2022-09-09T15:42:42;21.90;99.90
5007;DHT22;2522;50.972;11.046;2022-09-09T15:45:09;21.90;99.90
5007;DHT22;2522;50.972;11.046;2022-09-09T15:47:37;21.90;99.80
5007;DHT22;2522;50.972;11.046;2022-09-09T15:50:04;21.90;99.80
5007;DHT22;2522;50.972;11.046;2022-09-09T15:52:31;21.90;99.90
5007;DHT22;2522;50.972;11.046;2022-09-09T15:54:58;22.00;99.90
5007;DHT22;2522;50.972;11.046;2022-09-09T15:57:25;22.10;99.90
5007;DHT22;2522;50.972;11.046;2022-09-09T15:59:52;22.10;99.90
5007;DHT22;2522;50.972;11.046;2022-09-09T16:02:19;22.10;99.70
5007;DHT22;2522;50.972;11.046;2022-09-09T16:04:47;22.10;99.50
5007;DHT22;2522;50.972;11.046;2022-09-09T16:07:14;22.10;99.50
5007;DHT22;2522;50.972;11.046;2022-09-09T16:09:41;22.10;99.30
5007;DHT22;2522;50.972;11.046;2022-09-09T16:12:08;22.10;99.50
5007;DHT22;2522;50.972;11.046;2022-09-09T16:14:37;22.00;99.60
5007;DHT22;2522;50.972;11.046;2022-09-09T16:17:04;21.90;99.60
5007;DHT22;2522;50.972;11.046;2022-09-09T16:19:31;21.80;99.60
5007;DHT22;2522;50.972;11.046;2022-09-09T16:22:01;21.80;99.70
5007;DHT22;2522;50.972;11.046;2022-09-09T16:24:28;21.70;99.90
5007;DHT22;2522;50.972;11.046;2022-09-09T16:26:54;21.60;99.90
5007;DHT22;2522;50.972;11.046;2022-09-09T16:29:21;21.50;99.90
5007;DHT22;2522;50.972;11.046;2022-09-09T16:31:48;21.50;99.90
5007;DHT22;2522;50.972;11.046;2022-09-09T16:34:16;21.40;99.90
5007;DHT22;2522;50.972;11.046;2022-09-09T16:36:43;21.30;99.90
5007;DHT22;2522;50.972;11.046;2022-09-09T16:39:12;21.30;99.90
5007;DHT22;2522;50.972;11.046;2022-09-09T16:41:39;21.20;99.90
5007;DHT22;2522;50.972;11.046;2022-09-09T16:44:07;21.20;99.90
5007;DHT22;2522;50.972;11.046;2022-09-09T16:46:35;21.20;99.90
5007;DHT22;2522;50.972;11.046;2022-09-09T16:49:02;21.20;99.90
5007;DHT22;2522;50.972;11.046;2022-09-09T16:51:30;21.10;99.90
5007;DHT22;2522;50.972;11.046;2022-09-09T16:53:58;21.10;99.90
5007;DHT22;2522;50.972;11.046;2022-09-09T16:56:27;21.10;99.90
5007;DHT22;2522;50.972;11.046;2022-09-09T16:58:54;21.00;99.90
5007;DHT22;2522;50.972;11.046;2022-09-09T17:01:21;21.00;99.90
5007;DHT22;2522;50.972;11.046;2022-09-09T17:03:51;20.90;99.90
5007;DHT22;2522;50.972;11.046;2022-09-09T17:06:18;20.90;99.90
5007;DHT22;2522;50.972;11.046;2022-09-09T17:08:45;20.90;99.90
5007;DHT22;2522;50.972;11.046;2022-09-09T17:11:14;20.80;99.90
5007;DHT22;2522;50.972;11.046;2022-09-09T17:13:42;20.80;99.90
5007;DHT22;2522;50.972;11.046;2022-09-09T17:16:09;20.80;99.90
5007;DHT22;2522;50.972;11.046;2022-09-09T17:18:36;20.70;99.90
5007;DHT22;2522;50.972;11.046;2022-09-09T17:21:03;20.70;99.90
5007;DHT22;2522;50.972;11.046;2022-09-09T17:23:32;20.60;99.90
5007;DHT22;2522;50.972;11.046;2022-09-09T17:25:59;20.50;99.90
5007;DHT22;2522;50.972;11.046;2022-09-09T17:28:26;20.50;99.90
5007;DHT22;2522;50.972;11.046;2022-09-09T17:30:58;20.40;99.90
5007;DHT22;2522;50.972;11.046;2022-09-09T17:33:26;20.40;99.90
5007;DHT22;2522;50.972;11.046;2022-09-09T17:35:56;20.30;99.90
5007;DHT22;2522;50.972;11.046;2022-09-09T17:38:23;20.20;99.90
5007;DHT22;2522;50.972;11.046;2022-09-09T17:40:50;20.20;99.90
5007;DHT22;2522;50.972;11.046;2022-09-09T17:43:18;20.20;99.90
5007;DHT22;2522;50.972;11.046;2022-09-09T17:45:45;20.10;99.90
5007;DHT22;2522;50.972;11.046;2022-09-09T17:48:13;20.00;99.90
5007;DHT22;2522;50.972;11.046;2022-09-09T17:50:39;20.00;99.90
5007;DHT22;2522;50.972;11.046;2022-09-09T17:53:07;19.90;99.90
5007;DHT22;2522;50.972;11.046;2022-09-09T17:55:33;19.80;99.90
5007;DHT22;2522;50.972;11.046;2022-09-09T17:58:00;19.80;99.90
5007;DHT22;2522;50.972;11.046;2022-09-09T18:00:27;19.70;99.90
5007;DHT22;2522;50.972;11.046;2022-09-09T18:02:55;19.60;99.90
5007;DHT22;2522;50.972;11.046;2022-09-09T18:05:23;19.60;99.90
5007;DHT22;2522;50.972;11.046;2022-09-09T18:07:50;19.50;99.90
5007;DHT22;2522;50.972;11.046;2022-09-09T18:10:17;19.50;99.90
5007;DHT22;2522;50.972;11.046;2022-09-09T18:12:44;19.40;99.90
5007;DHT22;2522;50.972;11.046;2022-09-09T18:15:10;19.30;99.90
5007;DHT22;2522;50.972;11.046;2022-09-09T18:17:37;19.30;99.90
5007;DHT22;2522;50.972;11.046;2022-09-09T18:20:04;19.20;99.90
5007;DHT22;2522;50.972;11.046;2022-09-09T18:22:33;19.10;99.90
5007;DHT22;2522;50.972;11.046;2022-09-09T18:25:00;19.10;99.90
5007;DHT22;2522;50.972;11.046;2022-09-09T18:27:26;19.00;99.90
5007;DHT22;2522;50.972;11.046;2022-09-09T18:29:54;19.00;99.90
5007;DHT22;2522;50.972;11.046;2022-09-09T18:32:20;19.10;99.90
5007;DHT22;2522;50.972;11.046;2022-09-09T18:34:48;18.90;99.90
5007;DHT22;2522;50.972;11.046;2022-09-09T18:37:15;18.90;99.90
5007;DHT22;2522;50.972;11.046;2022-09-09T18:39:44;18.80;99.90
5007;DHT22;2522;50.972;11.046;2022-09-09T18:42:12;18.70;99.90
5007;DHT22;2522;50.972;11.046;2022-09-09T18:44:39;18.70;99.90
5007;DHT22;2522;50.972;11.046;2022-09-09T18:47:07;18.70;99.90
5007;DHT22;2522;50.972;11.046;2022-09-09T18:49:35;18.70;99.90
5007;DHT22;2522;50.972;11.046;2022-09-09T18:52:01;18.70;99.90
5007;DHT22;2522;50.972;11.046;2022-09-09T18:54:28;18.60;99.90
5007;DHT22;2522;50.972;11.046;2022-09-09T18:56:59;18.50;99.90
5007;DHT22;2522;50.972;11.046;2022-09-09T18:59:26;18.50;99.90
5007;DHT22;2522;50.972;11.046;2022-09-09T19:01:52;18.50;99.90
5007;DHT22;2522;50.972;11.046;2022-09-09T19:04:19;18.50;99.90
5007;DHT22;2522;50.972;11.046;2022-09-09T19:06:47;18.40;99.90
5007;DHT22;2522;50.972;11.046;2022-09-09T19:09:15;18.30;99.90
5007;DHT22;2522;50.972;11.046;2022-09-09T19:11:42;18.30;99.90
5007;DHT22;2522;50.972;11.046;2022-09-09T19:14:11;18.30;99.90
5007;DHT22;2522;50.972;11.046;2022-09-09T19:16:38;18.20;99.90
5007;DHT22;2522;50.972;11.046;2022-09-09T19:19:07;18.20;99.90
5007;DHT22;2522;50.972;11.046;2022-09-09T19:21:34;18.10;99.90
5007;DHT22;2522;50.972;11.046;2022-09-09T19:24:03;18.10;99.90
5007;DHT22;2522;50.972;11.046;2022-09-09T19:26:31;18.10;99.90
5007;DHT22;2522;50.972;11.046;2022-09-09T19:28:59;18.00;99.90
5007;DHT22;2522;50.972;11.046;2022-09-09T19:31:28;18.00;99.90